sensor_id;sensor_type;location;lat;lon;timestamp;P1;durP1;ratioP1;P2;durP2;ratioP2
77573;SDS011;66710;48.868;9.080;2023-12-14T00:01:11;7.70;;;3.10;;
77573;SDS011;66710;48.868;9.080;2023-12-14T00:03:38;7.65;;;3.65;;
77573;SDS011;66710;48.868;9.080;2023-12-14T00:06:03;7.38;;;2.80;;
77573;SDS011;66710;48.868;9.080;2023-12-14T00:08:29;6.18;;;2.75;;
77573;SDS011;66710;48.868;9.080;2023-12-14T00:10:54;6.05;;;2.80;;
77573;SDS011;66710;48.868;9.080;2023-12-14T00:13:19;6.78;;;2.83;;
77573;SDS011;66710;48.868;9.080;2023-12-14T00:15:45;5.18;;;2.95;;
77573;SDS011;66710;48.868;9.080;2023-12-14T00:18:10;6.30;;;3.05;;
77573;SDS011;66710;48.868;9.080;2023-12-14T00:20:35;6.60;;;2.90;;
77573;SDS011;66710;48.868;9.080;2023-12-14T00:23:00;5.60;;;2.90;;
77573;SDS011;66710;48.868;9.080;2023-12-14T00:25:26;4.90;;;2.67;;
77573;SDS011;66710;48.868;9.080;2023-12-14T00:27:51;5.32;;;2.58;;
77573;SDS011;66710;48.868;9.080;2023-12-14T00:30:16;5.30;;;2.92;;
77573;SDS011;66710;48.868;9.080;2023-12-14T00:32:42;5.47;;;2.90;;
77573;SDS011;66710;48.868;9.080;2023-12-14T00:35:07;4.80;;;2.60;;
77573;SDS011;66710;48.868;9.080;2023-12-14T00:37:32;5.82;;;2.60;;
77573;SDS011;66710;48.868;9.080;2023-12-14T00:39:58;5.95;;;2.40;;
77573;SDS011;66710;48.868;9.080;2023-12-14T00:42:23;4.53;;;2.28;;
77573;SDS011;66710;48.868;9.080;2023-12-14T00:44:48;4.35;;;2.40;;
77573;SDS011;66710;48.868;9.080;2023-12-14T00:47:15;5.47;;;2.00;;
77573;SDS011;66710;48.868;9.080;2023-12-14T00:49:40;3.67;;;2.03;;
77573;SDS011;66710;48.868;9.080;2023-12-14T00:52:06;4.03;;;2.15;;
77573;SDS011;66710;48.868;9.080;2023-12-14T00:54:31;5.35;;;2.17;;
77573;SDS011;66710;48.868;9.080;2023-12-14T00:56:56;3.97;;;2.00;;
77573;SDS011;66710;48.868;9.080;2023-12-14T00:59:21;3.97;;;2.17;;
77573;SDS011;66710;48.868;9.080;2023-12-14T01:01:47;4.78;;;2.00;;
77573;SDS011;66710;48.868;9.080;2023-12-14T01:04:12;3.50;;;1.80;;
77573;SDS011;66710;48.868;9.080;2023-12-14T01:06:37;3.67;;;1.70;;
77573;SDS011;66710;48.868;9.080;2023-12-14T01:09:03;3.75;;;1.95;;
77573;SDS011;66710;48.868;9.080;2023-12-14T01:11:28;4.10;;;2.10;;
77573;SDS011;66710;48.868;9.080;2023-12-14T01:13:53;3.03;;;1.77;;
77573;SDS011;66710;48.868;9.080;2023-12-14T01:16:19;4.68;;;2.10;;
77573;SDS011;66710;48.868;9.080;2023-12-14T01:18:44;3.80;;;1.80;;
77573;SDS011;66710;48.868;9.080;2023-12-14T01:21:09;4.68;;;1.90;;
77573;SDS011;66710;48.868;9.080;2023-12-14T01:23:34;4.18;;;1.90;;
77573;SDS011;66710;48.868;9.080;2023-12-14T01:26:00;5.07;;;2.42;;
77573;SDS011;66710;48.868;9.080;2023-12-14T01:28:25;3.22;;;1.85;;
77573;SDS011;66710;48.868;9.080;2023-12-14T01:30:50;3.90;;;2.13;;
77573;SDS011;66710;48.868;9.080;2023-12-14T01:33:16;2.80;;;1.70;;
77573;SDS011;66710;48.868;9.080;2023-12-14T01:35:41;3.60;;;1.77;;
77573;SDS011;66710;48.868;9.080;2023-12-14T01:38:06;3.33;;;1.70;;
77573;SDS011;66710;48.868;9.080;2023-12-14T01:40:32;4.38;;;2.08;;
77573;SDS011;66710;48.868;9.080;2023-12-14T01:43:07;3.97;;;1.70;;
77573;SDS011;66710;48.868;9.080;2023-12-14T01:45:36;3.25;;;1.60;;
77573;SDS011;66710;48.868;9.080;2023-12-14T01:48:02;4.63;;;2.00;;
77573;SDS011;66710;48.868;9.080;2023-12-14T01:50:28;5.13;;;2.00;;
77573;SDS011;66710;48.868;9.080;2023-12-14T01:52:53;3.25;;;1.77;;
77573;SDS011;66710;48.868;9.080;2023-12-14T01:55:18;3.40;;;1.73;;
77573;SDS011;66710;48.868;9.080;2023-12-14T01:57:44;4.53;;;2.00;;
77573;SDS011;66710;48.868;9.080;2023-12-14T02:00:12;4.40;;;2.03;;
77573;SDS011;66710;48.868;9.080;2023-12-14T02:02:46;3.80;;;1.50;;
77573;SDS011;66710;48.868;9.080;2023-12-14T02:05:11;3.15;;;1.60;;
77573;SDS011;66710;48.868;9.080;2023-12-14T02:07:36;4.10;;;1.80;;
77573;SDS011;66710;48.868;9.080;2023-12-14T02:10:01;4.40;;;1.90;;
77573;SDS011;66710;48.868;9.080;2023-12-14T02:12:27;3.75;;;1.98;;
77573;SDS011;66710;48.868;9.080;2023-12-14T02:14:52;5.50;;;2.05;;
77573;SDS011;66710;48.868;9.080;2023-12-14T02:17:17;3.97;;;1.70;;
77573;SDS011;66710;48.868;9.080;2023-12-14T02:19:43;3.92;;;2.00;;
77573;SDS011;66710;48.868;9.080;2023-12-14T02:22:08;5.20;;;2.15;;
77573;SDS011;66710;48.868;9.080;2023-12-14T02:24:33;4.47;;;2.00;;
77573;SDS011;66710;48.868;9.080;2023-12-14T02:26:59;4.07;;;2.20;;
77573;SDS011;66710;48.868;9.080;2023-12-14T02:29:24;4.07;;;1.90;;
77573;SDS011;66710;48.868;9.080;2023-12-14T02:31:50;4.32;;;1.90;;
77573;SDS011;66710;48.868;9.080;2023-12-14T02:34:15;3.55;;;1.92;;
77573;SDS011;66710;48.868;9.080;2023-12-14T02:36:40;4.43;;;1.80;;
77573;SDS011;66710;48.868;9.080;2023-12-14T02:39:06;3.83;;;1.77;;
77573;SDS011;66710;48.868;9.080;2023-12-14T02:41:31;5.95;;;1.90;;
77573;SDS011;66710;48.868;9.080;2023-12-14T02:43:56;4.40;;;1.80;;
77573;SDS011;66710;48.868;9.080;2023-12-14T02:46:22;3.78;;;1.60;;
77573;SDS011;66710;48.868;9.080;2023-12-14T02:48:47;4.90;;;1.98;;
77573;SDS011;66710;48.868;9.080;2023-12-14T02:51:13;4.25;;;1.70;;
77573;SDS011;66710;48.868;9.080;2023-12-14T02:53:39;3.10;;;1.52;;
77573;SDS011;66710;48.868;9.080;2023-12-14T02:56:05;4.47;;;1.80;;
77573;SDS011;66710;48.868;9.080;2023-12-14T02:58:30;5.18;;;1.70;;
77573;SDS011;66710;48.868;9.080;2023-12-14T03:00:55;3.72;;;1.60;;
77573;SDS011;66710;48.868;9.080;2023-12-14T03:03:21;3.33;;;1.73;;
77573;SDS011;66710;48.868;9.080;2023-12-14T03:05:46;3.60;;;1.80;;
77573;SDS011;66710;48.868;9.080;2023-12-14T03:08:11;4.60;;;2.05;;
77573;SDS011;66710;48.868;9.080;2023-12-14T03:10:37;4.13;;;1.90;;
77573;SDS011;66710;48.868;9.080;2023-12-14T03:13:02;4.40;;;2.03;;
77573;SDS011;66710;48.868;9.080;2023-12-14T03:15:27;3.95;;;2.08;;
77573;SDS011;66710;48.868;9.080;2023-12-14T03:17:53;4.57;;;1.58;;
77573;SDS011;66710;48.868;9.080;2023-12-14T03:20:18;2.75;;;1.52;;
77573;SDS011;66710;48.868;9.080;2023-12-14T03:22:43;3.45;;;1.42;;
77573;SDS011;66710;48.868;9.080;2023-12-14T03:25:09;2.25;;;1.50;;
77573;SDS011;66710;48.868;9.080;2023-12-14T03:27:35;3.33;;;1.70;;
77573;SDS011;66710;48.868;9.080;2023-12-14T03:30:00;3.72;;;1.70;;
77573;SDS011;66710;48.868;9.080;2023-12-14T03:32:25;3.20;;;1.80;;
77573;SDS011;66710;48.868;9.080;2023-12-14T03:34:51;3.35;;;1.70;;
77573;SDS011;66710;48.868;9.080;2023-12-14T03:37:16;2.45;;;1.25;;
77573;SDS011;66710;48.868;9.080;2023-12-14T03:39:41;3.08;;;1.63;;
77573;SDS011;66710;48.868;9.080;2023-12-14T03:42:07;5.32;;;2.00;;
77573;SDS011;66710;48.868;9.080;2023-12-14T03:44:32;3.92;;;2.10;;
77573;SDS011;66710;48.868;9.080;2023-12-14T03:46:57;3.70;;;1.90;;
77573;SDS011;66710;48.868;9.080;2023-12-14T03:49:24;3.40;;;1.95;;
77573;SDS011;66710;48.868;9.080;2023-12-14T03:51:50;4.22;;;1.98;;
77573;SDS011;66710;48.868;9.080;2023-12-14T03:54:15;4.18;;;2.33;;
77573;SDS011;66710;48.868;9.080;2023-12-14T03:56:40;4.40;;;1.83;;
77573;SDS011;66710;48.868;9.080;2023-12-14T03:59:06;5.55;;;2.20;;
77573;SDS011;66710;48.868;9.080;2023-12-14T04:01:31;4.65;;;2.00;;
77573;SDS011;66710;48.868;9.080;2023-12-14T04:03:58;6.22;;;2.10;;
77573;SDS011;66710;48.868;9.080;2023-12-14T04:06:23;3.78;;;2.00;;
77573;SDS011;66710;48.868;9.080;2023-12-14T04:08:49;6.35;;;2.17;;
77573;SDS011;66710;48.868;9.080;2023-12-14T04:11:14;4.10;;;2.25;;
77573;SDS011;66710;48.868;9.080;2023-12-14T04:13:39;3.90;;;2.17;;
77573;SDS011;66710;48.868;9.080;2023-12-14T04:16:05;3.47;;;2.00;;
77573;SDS011;66710;48.868;9.080;2023-12-14T04:18:30;4.50;;;2.10;;
77573;SDS011;66710;48.868;9.080;2023-12-14T04:20:56;5.70;;;2.20;;
77573;SDS011;66710;48.868;9.080;2023-12-14T04:23:21;6.13;;;2.05;;
77573;SDS011;66710;48.868;9.080;2023-12-14T04:25:46;4.22;;;2.13;;
77573;SDS011;66710;48.868;9.080;2023-12-14T04:28:12;5.80;;;2.30;;
77573;SDS011;66710;48.868;9.080;2023-12-14T04:30:37;4.50;;;2.22;;
77573;SDS011;66710;48.868;9.080;2023-12-14T04:33:02;5.22;;;2.50;;
77573;SDS011;66710;48.868;9.080;2023-12-14T04:35:27;4.88;;;2.30;;
77573;SDS011;66710;48.868;9.080;2023-12-14T04:37:53;4.45;;;2.30;;
77573;SDS011;66710;48.868;9.080;2023-12-14T04:40:18;6.45;;;2.53;;
77573;SDS011;66710;48.868;9.080;2023-12-14T04:42:44;4.13;;;2.17;;
77573;SDS011;66710;48.868;9.080;2023-12-14T04:45:09;4.07;;;2.20;;
77573;SDS011;66710;48.868;9.080;2023-12-14T04:47:35;5.60;;;2.10;;
77573;SDS011;66710;48.868;9.080;2023-12-14T04:50:01;4.60;;;2.13;;
77573;SDS011;66710;48.868;9.080;2023-12-14T04:52:27;4.13;;;2.28;;
77573;SDS011;66710;48.868;9.080;2023-12-14T04:54:53;4.30;;;2.30;;
77573;SDS011;66710;48.868;9.080;2023-12-14T04:57:18;3.20;;;2.10;;
77573;SDS011;66710;48.868;9.080;2023-12-14T04:59:43;4.15;;;2.13;;
77573;SDS011;66710;48.868;9.080;2023-12-14T05:02:09;4.22;;;2.05;;
77573;SDS011;66710;48.868;9.080;2023-12-14T05:04:34;4.47;;;2.45;;
77573;SDS011;66710;48.868;9.080;2023-12-14T05:06:59;4.28;;;2.42;;
77573;SDS011;66710;48.868;9.080;2023-12-14T05:09:25;4.57;;;2.25;;
77573;SDS011;66710;48.868;9.080;2023-12-14T05:11:50;4.55;;;2.60;;
77573;SDS011;66710;48.868;9.080;2023-12-14T05:14:16;5.40;;;2.72;;
77573;SDS011;66710;48.868;9.080;2023-12-14T05:16:41;5.80;;;2.50;;
77573;SDS011;66710;48.868;9.080;2023-12-14T05:19:07;4.85;;;2.50;;
77573;SDS011;66710;48.868;9.080;2023-12-14T05:21:32;4.97;;;2.65;;
77573;SDS011;66710;48.868;9.080;2023-12-14T05:23:57;6.47;;;2.90;;
77573;SDS011;66710;48.868;9.080;2023-12-14T05:26:23;5.55;;;2.63;;
77573;SDS011;66710;48.868;9.080;2023-12-14T05:28:48;6.13;;;2.80;;
77573;SDS011;66710;48.868;9.080;2023-12-14T05:31:13;7.50;;;3.22;;
77573;SDS011;66710;48.868;9.080;2023-12-14T05:33:39;6.18;;;3.20;;
77573;SDS011;66710;48.868;9.080;2023-12-14T05:36:05;6.80;;;3.25;;
77573;SDS011;66710;48.868;9.080;2023-12-14T05:38:34;5.63;;;3.20;;
77573;SDS011;66710;48.868;9.080;2023-12-14T05:40:59;6.72;;;3.55;;
77573;SDS011;66710;48.868;9.080;2023-12-14T05:43:25;9.00;;;3.10;;
77573;SDS011;66710;48.868;9.080;2023-12-14T05:45:50;6.32;;;3.22;;
77573;SDS011;66710;48.868;9.080;2023-12-14T05:48:15;5.35;;;2.42;;
77573;SDS011;66710;48.868;9.080;2023-12-14T05:50:40;4.78;;;2.45;;
77573;SDS011;66710;48.868;9.080;2023-12-14T05:53:06;5.10;;;2.80;;
77573;SDS011;66710;48.868;9.080;2023-12-14T05:55:31;5.57;;;2.95;;
77573;SDS011;66710;48.868;9.080;2023-12-14T05:57:56;5.38;;;2.88;;
77573;SDS011;66710;48.868;9.080;2023-12-14T06:00:22;5.65;;;2.65;;
77573;SDS011;66710;48.868;9.080;2023-12-14T06:02:47;6.93;;;2.97;;
77573;SDS011;66710;48.868;9.080;2023-12-14T06:05:12;6.30;;;3.35;;
77573;SDS011;66710;48.868;9.080;2023-12-14T06:07:38;6.68;;;3.33;;
77573;SDS011;66710;48.868;9.080;2023-12-14T06:10:03;7.88;;;3.45;;
77573;SDS011;66710;48.868;9.080;2023-12-14T06:12:29;8.85;;;3.42;;
77573;SDS011;66710;48.868;9.080;2023-12-14T06:14:54;6.57;;;3.08;;
77573;SDS011;66710;48.868;9.080;2023-12-14T06:17:19;8.50;;;3.70;;
77573;SDS011;66710;48.868;9.080;2023-12-14T06:19:45;8.73;;;3.58;;
77573;SDS011;66710;48.868;9.080;2023-12-14T06:22:10;6.72;;;3.10;;
77573;SDS011;66710;48.868;9.080;2023-12-14T06:24:35;6.13;;;3.65;;
77573;SDS011;66710;48.868;9.080;2023-12-14T06:27:01;8.00;;;3.53;;
77573;SDS011;66710;48.868;9.080;2023-12-14T06:29:26;6.38;;;3.22;;
77573;SDS011;66710;48.868;9.080;2023-12-14T06:31:51;7.13;;;3.50;;
77573;SDS011;66710;48.868;9.080;2023-12-14T06:34:17;6.65;;;3.45;;
77573;SDS011;66710;48.868;9.080;2023-12-14T06:36:43;10.25;;;4.57;;
77573;SDS011;66710;48.868;9.080;2023-12-14T06:39:09;8.82;;;5.22;;
77573;SDS011;66710;48.868;9.080;2023-12-14T06:41:35;9.10;;;5.90;;
77573;SDS011;66710;48.868;9.080;2023-12-14T06:44:01;9.23;;;4.13;;
77573;SDS011;66710;48.868;9.080;2023-12-14T06:46:26;7.35;;;3.47;;
77573;SDS011;66710;48.868;9.080;2023-12-14T06:48:51;8.40;;;4.10;;
77573;SDS011;66710;48.868;9.080;2023-12-14T06:51:18;7.80;;;4.15;;
77573;SDS011;66710;48.868;9.080;2023-12-14T06:53:44;8.20;;;3.95;;
77573;SDS011;66710;48.868;9.080;2023-12-14T06:56:10;8.82;;;4.60;;
77573;SDS011;66710;48.868;9.080;2023-12-14T06:58:36;9.20;;;4.57;;
77573;SDS011;66710;48.868;9.080;2023-12-14T07:01:02;9.02;;;4.20;;
77573;SDS011;66710;48.868;9.080;2023-12-14T07:03:27;8.32;;;4.60;;
77573;SDS011;66710;48.868;9.080;2023-12-14T07:05:53;9.13;;;4.72;;
77573;SDS011;66710;48.868;9.080;2023-12-14T07:08:18;9.10;;;4.50;;
77573;SDS011;66710;48.868;9.080;2023-12-14T07:10:43;8.68;;;4.28;;
77573;SDS011;66710;48.868;9.080;2023-12-14T07:13:09;10.07;;;5.25;;
77573;SDS011;66710;48.868;9.080;2023-12-14T07:15:34;9.18;;;5.10;;
77573;SDS011;66710;48.868;9.080;2023-12-14T07:17:59;8.82;;;4.60;;
77573;SDS011;66710;48.868;9.080;2023-12-14T07:20:24;10.40;;;6.25;;
77573;SDS011;66710;48.868;9.080;2023-12-14T07:22:50;12.80;;;7.38;;
77573;SDS011;66710;48.868;9.080;2023-12-14T07:25:15;11.52;;;6.03;;
77573;SDS011;66710;48.868;9.080;2023-12-14T07:27:41;12.18;;;5.68;;
77573;SDS011;66710;48.868;9.080;2023-12-14T07:30:07;9.90;;;5.10;;
77573;SDS011;66710;48.868;9.080;2023-12-14T07:32:34;9.07;;;4.95;;
77573;SDS011;66710;48.868;9.080;2023-12-14T07:34:59;7.93;;;4.22;;
77573;SDS011;66710;48.868;9.080;2023-12-14T07:37:24;9.00;;;4.93;;
77573;SDS011;66710;48.868;9.080;2023-12-14T07:39:50;11.82;;;5.40;;
77573;SDS011;66710;48.868;9.080;2023-12-14T07:42:15;22.55;;;13.02;;
77573;SDS011;66710;48.868;9.080;2023-12-14T07:44:44;14.85;;;9.57;;
77573;SDS011;66710;48.868;9.080;2023-12-14T07:47:10;7.68;;;4.00;;
77573;SDS011;66710;48.868;9.080;2023-12-14T07:49:35;9.63;;;5.10;;
77573;SDS011;66710;48.868;9.080;2023-12-14T07:52:00;10.48;;;5.78;;
77573;SDS011;66710;48.868;9.080;2023-12-14T07:54:26;9.32;;;5.32;;
77573;SDS011;66710;48.868;9.080;2023-12-14T07:56:51;9.93;;;4.97;;
77573;SDS011;66710;48.868;9.080;2023-12-14T07:59:17;16.40;;;6.68;;
77573;SDS011;66710;48.868;9.080;2023-12-14T08:01:42;11.00;;;6.13;;
77573;SDS011;66710;48.868;9.080;2023-12-14T08:04:07;12.80;;;7.00;;
77573;SDS011;66710;48.868;9.080;2023-12-14T08:06:33;13.32;;;7.35;;
77573;SDS011;66710;48.868;9.080;2023-12-14T08:08:58;12.63;;;7.75;;
77573;SDS011;66710;48.868;9.080;2023-12-14T08:11:23;13.13;;;7.07;;
77573;SDS011;66710;48.868;9.080;2023-12-14T08:13:49;13.02;;;6.90;;
77573;SDS011;66710;48.868;9.080;2023-12-14T08:16:14;13.57;;;6.30;;
77573;SDS011;66710;48.868;9.080;2023-12-14T08:18:42;12.73;;;6.88;;
77573;SDS011;66710;48.868;9.080;2023-12-14T08:21:09;11.98;;;6.68;;
77573;SDS011;66710;48.868;9.080;2023-12-14T08:23:35;15.25;;;6.97;;
77573;SDS011;66710;48.868;9.080;2023-12-14T08:26:01;14.38;;;7.55;;
77573;SDS011;66710;48.868;9.080;2023-12-14T08:28:26;13.40;;;6.97;;
77573;SDS011;66710;48.868;9.080;2023-12-14T08:30:51;15.25;;;7.80;;
77573;SDS011;66710;48.868;9.080;2023-12-14T08:33:17;13.95;;;7.00;;
77573;SDS011;66710;48.868;9.080;2023-12-14T08:35:42;14.43;;;7.57;;
77573;SDS011;66710;48.868;9.080;2023-12-14T08:38:07;12.82;;;6.90;;
77573;SDS011;66710;48.868;9.080;2023-12-14T08:40:33;14.48;;;7.43;;
77573;SDS011;66710;48.868;9.080;2023-12-14T08:42:58;15.65;;;7.95;;
77573;SDS011;66710;48.868;9.080;2023-12-14T08:45:23;15.70;;;8.90;;
77573;SDS011;66710;48.868;9.080;2023-12-14T08:47:49;18.40;;;8.73;;
77573;SDS011;66710;48.868;9.080;2023-12-14T08:50:14;12.63;;;6.95;;
77573;SDS011;66710;48.868;9.080;2023-12-14T08:52:39;10.65;;;5.47;;
77573;SDS011;66710;48.868;9.080;2023-12-14T08:55:05;12.13;;;7.13;;
77573;SDS011;66710;48.868;9.080;2023-12-14T08:57:31;16.95;;;7.32;;
77573;SDS011;66710;48.868;9.080;2023-12-14T08:59:56;15.85;;;7.97;;
77573;SDS011;66710;48.868;9.080;2023-12-14T09:02:21;11.30;;;5.93;;
77573;SDS011;66710;48.868;9.080;2023-12-14T09:04:47;17.27;;;8.18;;
77573;SDS011;66710;48.868;9.080;2023-12-14T09:07:12;22.52;;;7.80;;
77573;SDS011;66710;48.868;9.080;2023-12-14T09:09:37;13.88;;;7.35;;
77573;SDS011;66710;48.868;9.080;2023-12-14T09:12:03;17.27;;;8.05;;
77573;SDS011;66710;48.868;9.080;2023-12-14T09:14:28;14.38;;;7.78;;
77573;SDS011;66710;48.868;9.080;2023-12-14T09:16:54;17.13;;;8.38;;
77573;SDS011;66710;48.868;9.080;2023-12-14T09:19:20;15.93;;;8.07;;
77573;SDS011;66710;48.868;9.080;2023-12-14T09:21:45;22.08;;;8.50;;
77573;SDS011;66710;48.868;9.080;2023-12-14T09:24:11;16.65;;;7.35;;
77573;SDS011;66710;48.868;9.080;2023-12-14T09:26:36;13.45;;;6.28;;
77573;SDS011;66710;48.868;9.080;2023-12-14T09:29:01;15.52;;;6.70;;
77573;SDS011;66710;48.868;9.080;2023-12-14T09:31:27;15.50;;;8.13;;
77573;SDS011;66710;48.868;9.080;2023-12-14T09:33:53;18.80;;;8.18;;
77573;SDS011;66710;48.868;9.080;2023-12-14T09:36:18;16.63;;;8.80;;
77573;SDS011;66710;48.868;9.080;2023-12-14T09:38:44;12.07;;;5.70;;
77573;SDS011;66710;48.868;9.080;2023-12-14T09:41:10;13.40;;;7.35;;
77573;SDS011;66710;48.868;9.080;2023-12-14T09:43:35;13.65;;;7.15;;
77573;SDS011;66710;48.868;9.080;2023-12-14T09:46:00;13.32;;;6.78;;
77573;SDS011;66710;48.868;9.080;2023-12-14T09:48:26;9.80;;;4.47;;
77573;SDS011;66710;48.868;9.080;2023-12-14T09:50:53;7.65;;;4.40;;
77573;SDS011;66710;48.868;9.080;2023-12-14T09:53:18;11.38;;;5.78;;
77573;SDS011;66710;48.868;9.080;2023-12-14T09:55:44;10.70;;;5.55;;
77573;SDS011;66710;48.868;9.080;2023-12-14T09:58:09;14.15;;;6.10;;
77573;SDS011;66710;48.868;9.080;2023-12-14T10:00:36;14.48;;;7.18;;
77573;SDS011;66710;48.868;9.080;2023-12-14T10:03:25;14.30;;;7.00;;
77573;SDS011;66710;48.868;9.080;2023-12-14T10:05:53;11.13;;;6.18;;
77573;SDS011;66710;48.868;9.080;2023-12-14T10:08:19;12.90;;;6.22;;
77573;SDS011;66710;48.868;9.080;2023-12-14T10:10:46;10.15;;;4.82;;
77573;SDS011;66710;48.868;9.080;2023-12-14T10:13:13;10.00;;;5.70;;
77573;SDS011;66710;48.868;9.080;2023-12-14T10:15:46;9.85;;;5.47;;
77573;SDS011;66710;48.868;9.080;2023-12-14T10:18:19;10.07;;;4.80;;
77573;SDS011;66710;48.868;9.080;2023-12-14T10:20:48;10.52;;;5.88;;
77573;SDS011;66710;48.868;9.080;2023-12-14T10:23:13;11.00;;;5.25;;
77573;SDS011;66710;48.868;9.080;2023-12-14T10:25:38;8.95;;;5.30;;
77573;SDS011;66710;48.868;9.080;2023-12-14T10:28:04;13.95;;;5.95;;
77573;SDS011;66710;48.868;9.080;2023-12-14T10:30:29;13.45;;;5.97;;
77573;SDS011;66710;48.868;9.080;2023-12-14T10:32:55;12.10;;;6.22;;
77573;SDS011;66710;48.868;9.080;2023-12-14T10:35:21;12.07;;;6.90;;
77573;SDS011;66710;48.868;9.080;2023-12-14T10:37:48;11.95;;;5.80;;
77573;SDS011;66710;48.868;9.080;2023-12-14T10:40:16;10.13;;;5.68;;
77573;SDS011;66710;48.868;9.080;2023-12-14T10:42:42;10.57;;;5.72;;
77573;SDS011;66710;48.868;9.080;2023-12-14T10:45:12;8.38;;;4.45;;
77573;SDS011;66710;48.868;9.080;2023-12-14T10:47:39;8.02;;;4.32;;
77573;SDS011;66710;48.868;9.080;2023-12-14T10:50:07;11.35;;;5.03;;
77573;SDS011;66710;48.868;9.080;2023-12-14T10:52:36;9.18;;;5.00;;
77573;SDS011;66710;48.868;9.080;2023-12-14T10:55:09;6.95;;;4.00;;
77573;SDS011;66710;48.868;9.080;2023-12-14T10:57:40;9.13;;;4.95;;
77573;SDS011;66710;48.868;9.080;2023-12-14T11:00:05;9.63;;;5.18;;
77573;SDS011;66710;48.868;9.080;2023-12-14T11:02:40;11.05;;;5.22;;
77573;SDS011;66710;48.868;9.080;2023-12-14T11:05:08;8.20;;;4.75;;
77573;SDS011;66710;48.868;9.080;2023-12-14T11:10:23;10.10;;;5.13;;
77573;SDS011;66710;48.868;9.080;2023-12-14T11:15:21;10.55;;;4.88;;
77573;SDS011;66710;48.868;9.080;2023-12-14T11:23:25;10.05;;;5.55;;
77573;SDS011;66710;48.868;9.080;2023-12-14T11:25:58;11.18;;;5.80;;
77573;SDS011;66710;48.868;9.080;2023-12-14T11:28:32;9.20;;;5.13;;
77573;SDS011;66710;48.868;9.080;2023-12-14T11:31:00;9.85;;;5.00;;
77573;SDS011;66710;48.868;9.080;2023-12-14T11:33:26;10.07;;;4.90;;
77573;SDS011;66710;48.868;9.080;2023-12-14T11:35:53;6.63;;;3.50;;
77573;SDS011;66710;48.868;9.080;2023-12-14T11:38:19;7.20;;;3.72;;
77573;SDS011;66710;48.868;9.080;2023-12-14T11:40:46;7.00;;;2.83;;
77573;SDS011;66710;48.868;9.080;2023-12-14T11:43:13;4.68;;;2.50;;
77573;SDS011;66710;48.868;9.080;2023-12-14T11:45:40;5.47;;;2.95;;
77573;SDS011;66710;48.868;9.080;2023-12-14T11:48:07;4.78;;;2.83;;
77573;SDS011;66710;48.868;9.080;2023-12-14T11:50:35;4.28;;;1.92;;
77573;SDS011;66710;48.868;9.080;2023-12-14T11:53:01;4.40;;;2.58;;
77573;SDS011;66710;48.868;9.080;2023-12-14T11:55:30;4.18;;;2.35;;
77573;SDS011;66710;48.868;9.080;2023-12-14T11:57:57;6.90;;;2.97;;
77573;SDS011;66710;48.868;9.080;2023-12-14T12:00:23;5.82;;;3.17;;
77573;SDS011;66710;48.868;9.080;2023-12-14T12:02:50;5.50;;;3.05;;
77573;SDS011;66710;48.868;9.080;2023-12-14T12:05:15;8.43;;;3.70;;
77573;SDS011;66710;48.868;9.080;2023-12-14T12:07:44;8.63;;;3.90;;
77573;SDS011;66710;48.868;9.080;2023-12-14T12:10:09;6.03;;;3.10;;
77573;SDS011;66710;48.868;9.080;2023-12-14T12:12:35;7.88;;;3.58;;
77573;SDS011;66710;48.868;9.080;2023-12-14T12:15:01;6.28;;;3.33;;
77573;SDS011;66710;48.868;9.080;2023-12-14T12:17:26;6.80;;;4.05;;
77573;SDS011;66710;48.868;9.080;2023-12-14T12:19:52;6.95;;;3.90;;
77573;SDS011;66710;48.868;9.080;2023-12-14T12:22:17;9.60;;;4.82;;
77573;SDS011;66710;48.868;9.080;2023-12-14T12:24:42;10.27;;;4.90;;
77573;SDS011;66710;48.868;9.080;2023-12-14T12:27:07;9.25;;;5.32;;
77573;SDS011;66710;48.868;9.080;2023-12-14T12:29:34;10.07;;;5.40;;
77573;SDS011;66710;48.868;9.080;2023-12-14T12:31:59;10.32;;;4.53;;
77573;SDS011;66710;48.868;9.080;2023-12-14T12:34:24;9.43;;;5.15;;
77573;SDS011;66710;48.868;9.080;2023-12-14T12:36:50;8.93;;;4.50;;
77573;SDS011;66710;48.868;9.080;2023-12-14T12:39:15;11.90;;;4.65;;
77573;SDS011;66710;48.868;9.080;2023-12-14T12:41:40;11.05;;;5.13;;
77573;SDS011;66710;48.868;9.080;2023-12-14T12:44:06;9.73;;;4.72;;
77573;SDS011;66710;48.868;9.080;2023-12-14T12:46:33;8.38;;;4.97;;
77573;SDS011;66710;48.868;9.080;2023-12-14T12:48:59;6.82;;;3.20;;
77573;SDS011;66710;48.868;9.080;2023-12-14T12:51:26;5.80;;;2.97;;
77573;SDS011;66710;48.868;9.080;2023-12-14T12:53:52;5.35;;;2.70;;
77573;SDS011;66710;48.868;9.080;2023-12-14T12:56:18;7.72;;;3.17;;
77573;SDS011;66710;48.868;9.080;2023-12-14T12:58:44;5.13;;;2.65;;
77573;SDS011;66710;48.868;9.080;2023-12-14T13:01:09;4.82;;;2.42;;
77573;SDS011;66710;48.868;9.080;2023-12-14T13:03:34;6.03;;;3.15;;
77573;SDS011;66710;48.868;9.080;2023-12-14T13:06:00;4.88;;;2.70;;
77573;SDS011;66710;48.868;9.080;2023-12-14T13:08:25;3.22;;;1.75;;
77573;SDS011;66710;48.868;9.080;2023-12-14T13:10:50;4.95;;;2.60;;
77573;SDS011;66710;48.868;9.080;2023-12-14T13:13:16;6.28;;;3.08;;
77573;SDS011;66710;48.868;9.080;2023-12-14T13:15:42;4.88;;;2.35;;
77573;SDS011;66710;48.868;9.080;2023-12-14T13:18:08;6.32;;;2.60;;
77573;SDS011;66710;48.868;9.080;2023-12-14T13:20:34;4.65;;;2.47;;
77573;SDS011;66710;48.868;9.080;2023-12-14T13:23:00;6.93;;;2.97;;
77573;SDS011;66710;48.868;9.080;2023-12-14T13:25:26;5.43;;;3.15;;
77573;SDS011;66710;48.868;9.080;2023-12-14T13:27:51;6.28;;;3.25;;
77573;SDS011;66710;48.868;9.080;2023-12-14T13:30:16;9.10;;;3.58;;
77573;SDS011;66710;48.868;9.080;2023-12-14T13:32:42;6.32;;;3.47;;
77573;SDS011;66710;48.868;9.080;2023-12-14T13:35:08;7.57;;;3.58;;
77573;SDS011;66710;48.868;9.080;2023-12-14T13:37:34;9.18;;;4.13;;
77573;SDS011;66710;48.868;9.080;2023-12-14T13:39:59;7.82;;;4.05;;
77573;SDS011;66710;48.868;9.080;2023-12-14T13:42:24;8.13;;;4.15;;
77573;SDS011;66710;48.868;9.080;2023-12-14T13:44:49;8.40;;;4.32;;
77573;SDS011;66710;48.868;9.080;2023-12-14T13:47:15;8.90;;;4.75;;
77573;SDS011;66710;48.868;9.080;2023-12-14T13:49:40;8.13;;;4.45;;
77573;SDS011;66710;48.868;9.080;2023-12-14T13:52:05;11.98;;;5.10;;
77573;SDS011;66710;48.868;9.080;2023-12-14T13:54:31;10.68;;;5.63;;
77573;SDS011;66710;48.868;9.080;2023-12-14T13:56:56;10.38;;;5.40;;
77573;SDS011;66710;48.868;9.080;2023-12-14T13:59:22;11.55;;;5.90;;
77573;SDS011;66710;48.868;9.080;2023-12-14T14:01:47;10.88;;;5.07;;
77573;SDS011;66710;48.868;9.080;2023-12-14T14:04:17;10.48;;;5.53;;
77573;SDS011;66710;48.868;9.080;2023-12-14T14:06:42;12.02;;;5.97;;
77573;SDS011;66710;48.868;9.080;2023-12-14T14:09:08;10.55;;;5.13;;
77573;SDS011;66710;48.868;9.080;2023-12-14T14:11:33;14.88;;;6.47;;
77573;SDS011;66710;48.868;9.080;2023-12-14T14:14:00;14.50;;;6.63;;
77573;SDS011;66710;48.868;9.080;2023-12-14T14:16:25;10.82;;;5.72;;
77573;SDS011;66710;48.868;9.080;2023-12-14T14:18:50;13.65;;;6.35;;
77573;SDS011;66710;48.868;9.080;2023-12-14T14:21:16;15.57;;;6.68;;
77573;SDS011;66710;48.868;9.080;2023-12-14T14:23:41;15.23;;;6.50;;
77573;SDS011;66710;48.868;9.080;2023-12-14T14:26:07;14.50;;;6.88;;
77573;SDS011;66710;48.868;9.080;2023-12-14T14:28:32;16.25;;;7.88;;
77573;SDS011;66710;48.868;9.080;2023-12-14T14:30:58;15.13;;;7.55;;
77573;SDS011;66710;48.868;9.080;2023-12-14T14:33:23;14.75;;;7.22;;
77573;SDS011;66710;48.868;9.080;2023-12-14T14:35:50;13.60;;;7.22;;
77573;SDS011;66710;48.868;9.080;2023-12-14T14:38:16;16.13;;;8.50;;
77573;SDS011;66710;48.868;9.080;2023-12-14T14:40:41;16.67;;;7.65;;
77573;SDS011;66710;48.868;9.080;2023-12-14T14:43:08;15.20;;;5.97;;
77573;SDS011;66710;48.868;9.080;2023-12-14T14:45:34;16.88;;;7.78;;